EDT,Max TemperatureF,Mean TemperatureF,Min TemperatureF,Max Dew PointF,MeanDew PointF,Min DewpointF,Max Humidity, Mean Humidity, Min Humidity, Max Sea Level PressureIn, Mean Sea Level PressureIn, Min Sea Level PressureIn, Max VisibilityMiles, Mean VisibilityMiles, Min VisibilityMiles, Max Wind SpeedMPH, Mean Wind SpeedMPH, Max Gust SpeedMPH,PrecipitationIn, CloudCover, Events, WindDirDegrees
2012-9-1,84,78,71,74,71,70,94,87,66,30.16,30.10,30.02,10,8,2,16,3,24,0.30,5,Rain-Thunderstorm,137
2012-9-2,81,76,71,72,71,69,100,89,76,30.07,29.99,29.89,10,8,1,12,5,,0.32,6,Rain-Thunderstorm,106
2012-9-3,80,74,70,72,70,68,100,89,74,29.96,29.93,29.89,10,8,1,26,9,33,1.23,6,Rain-Thunderstorm,128
2012-9-4,84,76,70,73,71,69,97,89,69,29.94,29.89,29.81,10,7,1,10,4,16,0.52,7,Rain-Thunderstorm,203
2012-9-5,84,75,68,70,67,66,100,84,58,29.93,29.88,29.81,10,6,0,6,1,,0.01,4,Fog,90
2012-9-6,87,75,63,69,64,62,100,79,44,29.95,29.91,29.87,10,6,1,14,2,21,0.00,1,,239
2012-9-7,87,75,66,70,67,64,96,76,53,29.96,29.87,29.68,10,7,2,9,3,,0.01,1,Thunderstorm,190
2012-9-8,79,66,55,66,59,46,94,82,40,29.91,29.75,29.62,10,8,2,24,11,32,0.67,5,Rain-Thunderstorm,293
2012-9-9,73,61,50,54,51,48,93,73,45,30.08,29.97,29.90,10,10,9,9,2,,0.01,4,,293
2012-9-10,73,60,48,52,47,43,96,72,34,30.23,30.17,30.09,10,8,2,7,1,,0.00,1,,45
2012-9-11,75,60,44,53,47,43,100,79,37,30.31,30.26,30.22,10,6,0,12,1,,0.00,0,Fog,140
2012-9-12,82,65,48,58,53,46,96,71,39,30.32,30.27,30.22,10,9,4,12,1,,0.01,0,,162
2012-9-13,82,68,53,62,56,52,100,78,42,30.32,30.27,30.21,10,7,2,12,2,16,0.00,2,,159
2012-9-14,81,63,48,61,55,46,96,81,52,30.30,30.24,30.19,10,8,2,16,3,26,0.00,3,,325
2012-9-15,73,58,42,53,44,37,100,80,26,30.34,30.28,30.19,10,6,1,9,0,,0.00,0,,294
2012-9-16,75,60,46,52,47,44,93,70,34,30.20,30.14,30.07,10,10,7,9,1,,0.01,0,,118
2012-9-17,75,60,46,63,55,45,94,77,46,30.08,29.94,29.82,10,9,2,12,3,,0.09,4,Rain,156
2012-9-18,68,60,53,64,58,40,96,83,50,30.00,29.72,29.62,10,6,2,15,4,23,0.25,7,Rain,296
2012-9-19,66,52,39,43,38,34,93,62,36,30.19,30.13,30.02,10,10,10,7,2,,0.00,0,,181
2012-9-20,75,57,39,55,46,38,93,67,32,30.10,30.02,29.94,10,10,9,16,5,21,0.00,2,Rain,183
2012-9-21,72,62,53,55,51,45,89,64,41,30.01,29.92,29.73,10,10,10,15,4,26,0.00,4,,193
2012-9-22,71,54,39,57,48,29,90,71,32,30.15,29.89,29.73,10,10,9,26,10,38,0.03,5,Rain,271
2012-9-23,64,48,34,42,36,32,97,69,36,30.25,30.20,30.14,10,10,9,9,2,,0.00,3,,294
2012-9-24,66,48,32,43,34,28,96,68,32,30.30,30.21,30.09,10,9,1,13,2,18,0.00,0,,199
2012-9-25,63,51,39,56,47,35,93,76,54,30.10,30.05,30.01,10,10,9,13,5,18,0.01,5,Rain,164
2012-9-26,75,66,59,63,60,57,94,83,66,30.13,30.06,29.99,10,9,5,14,7,24,0.07,6,Rain-Thunderstorm,214
2012-9-27,66,60,55,64,61,52,100,93,87,30.17,30.13,30.09,10,5,1,8,4,,0.56,8,Rain,209
2012-9-28,66,59,52,54,51,48,94,84,54,30.16,30.13,30.06,10,7,3,8,3,,0.00,6,,77
2012-9-29,70,55,42,51,46,41,100,81,43,30.10,30.05,29.96,10,6,0,9,1,,0.00,3,Fog,335
2012-9-30,72,56,41,50,42,39,96,74,33,29.94,29.89,29.85,10,7,0,9,1,,0.01,1,Fog,350